Kingston, Utah
Current Conditions -  °F | °C
As of 10:53 AM on Saturday 25 Oct 2014 (Local Time) from KBCE Reporting Station
Clear Clear  
Wind Chill: 57°   Ceiling: Unl
Heat Index: 57°   Visibility: 10mi
Dew Point: 33°   Wind: 12mph
Humidity: 40%   Direction: 130°SE
Pressure: 30.36"   Gusts: NA
Location:  38.21°N, 112.19°W
Report Text: KBCE 251653Z AUTO 13010KT 10SM CLR 14/01 A3036 RMK AO2 SLP211 T01390006 TSNO
Loading
Personal Weather Stations






























Interactive Weather Map
Tropical Storm Tracking
New forecast layout! Learn more

10-Day Weather Forecast

Advertisements
Track Severe Weather on mobile